Osijek Airport

LDOS · Vukovar-Syrmien, Kroatien

METAR-Geschichte LDOS · Osijek Airport

Unten siehst du die METARs der letzten paar Tage. Wähle ein Jahr, um ältere METARs ab dem Jahr 2007 zu durchsuchen.

19. Juli 2024

Uhrzeit Code Wetter Temp. Sichtweite Wolkendecke Wind METAR/SPECI
10:30
V
29 °C 10 km+ - 020° 020° 6 kt METAR LDOS 190830Z 02006KT 350V050 CAVOK 29/20 Q1017
10:00
V
28 °C 10 km+ - 030° 030° 6 kt METAR LDOS 190800Z 03006KT 340V070 CAVOK 28/21 Q1018
09:30
V
27 °C 10 km+ - 040° 040° 5 kt METAR LDOS 190730Z 04005KT 360V070 CAVOK 27/20 Q1018
09:00
V
26 °C 10 km+ - 040° 040° 5 kt METAR LDOS 190700Z 04005KT CAVOK 26/20 Q1018
08:30
V
26 °C 10 km+ - 030° 030° 7 kt METAR LDOS 190630Z 03007KT 360V060 CAVOK 26/19 Q1018
08:00
V
25 °C 10 km+ - 040° 040° 6 kt METAR LDOS 190600Z 04006KT 010V070 CAVOK 25/19 Q1018
07:30
V
25 °C 10 km+ - 030° 030° 6 kt METAR LDOS 190530Z 03006KT CAVOK 25/19 Q1018
07:00
V
24 °C 10 km+ - 040° 040° 3 kt METAR LDOS 190500Z 04003KT CAVOK 24/20 Q1018
06:30
V
23 °C 10 km+ - 360° 360° 3 kt METAR LDOS 190430Z 36003KT 330V030 CAVOK 23/20 Q1017
06:00
V
23 °C 10 km+ - 010° 010° 4 kt METAR LDOS 190400Z 01004KT CAVOK 23/19 Q1017
05:30
V
23 °C 10 km+ - 050° 050° 3 kt METAR LDOS 190330Z 05003KT CAVOK 23/20 Q1017
05:00
V
22 °C 10 km+ - 110° 110° 3 kt METAR LDOS 190300Z 11003KT 070V130 CAVOK 22/20 Q1017
04:30
V
22 °C 10 km+ - 080° 080° 3 kt METAR LDOS 190230Z 08003KT CAVOK 22/20 Q1017
04:00
V
23 °C 10 km+ - 040° 040° 5 kt METAR LDOS 190200Z 04005KT CAVOK 23/20 Q1017
03:30
V
23 °C 10 km+ - 050° 050° 5 kt METAR LDOS 190130Z 05005KT CAVOK 23/20 Q1017
03:00
V
24 °C 10 km+ - 050° 050° 6 kt METAR LDOS 190100Z 05006KT CAVOK 24/19 Q1017
02:30
V
24 °C 10 km+ - 060° 060° 6 kt METAR LDOS 190030Z 06006KT CAVOK 24/20 Q1017
02:00
V
25 °C 10 km+ - 080° 080° 5 kt METAR LDOS 190000Z 08005KT CAVOK 25/20 Q1017
01:30
V
26 °C 10 km+ - 060° 060° 7 kt METAR LDOS 182330Z 06007KT CAVOK 26/20 Q1017
01:00
V
25 °C 10 km+ - 060° 060° 4 kt METAR LDOS 182300Z 06004KT CAVOK 25/20 Q1017
00:30
V
25 °C 10 km+ - 050° 050° 6 kt METAR LDOS 182230Z 05006KT CAVOK 25/20 Q1017
00:00
V
26 °C 10 km+ - 050° 050° 7 kt METAR LDOS 182200Z 05007KT CAVOK 26/20 Q1017

18. Juli 2024

Uhrzeit Code Wetter Temp. Sichtweite Wolkendecke Wind METAR/SPECI
23:30
V
26 °C 10 km+ - 030° 030° 8 kt METAR LDOS 182130Z 03008KT CAVOK 26/20 Q1017
23:00
V
26 °C 10 km+ - 040° 040° 7 kt METAR LDOS 182100Z 04007KT CAVOK 26/21 Q1017
22:30
V
26 °C 10 km+ - 040° 040° 6 kt METAR LDOS 182030Z 04006KT CAVOK 26/22 Q1017
22:00
V
27 °C 10 km+ - 040° 040° 6 kt METAR LDOS 182000Z 04006KT CAVOK 27/22 Q1017
21:30
V
28 °C 10 km+ - 010° 010° 4 kt METAR LDOS 181930Z 01004KT CAVOK 28/22 Q1017
21:00
V
28 °C 10 km+ - 350° 350° 5 kt METAR LDOS 181900Z 35005KT CAVOK 28/22 Q1017
20:30
V
30 °C 10 km+ - 330° 330° 4 kt METAR LDOS 181830Z 33004KT CAVOK 30/21 Q1017
20:00
V
31 °C 10 km+ - 360° 360° 4 kt METAR LDOS 181800Z 36004KT CAVOK 31/22 Q1017
19:30
V
32 °C 10 km+ - 350° 350° 5 kt METAR LDOS 181730Z 35005KT CAVOK 32/21 Q1017
19:00
V
33 °C 10 km+ - 350° 350° 4 kt METAR LDOS 181700Z 35004KT CAVOK 33/21 Q1017
18:30
V
33 °C 10 km+ - 350° 350° 6 kt METAR LDOS 181630Z 35006KT CAVOK 33/20 Q1016
18:00
V
33 °C 10 km+ - 350° 350° 6 kt METAR LDOS 181600Z 35006KT CAVOK 33/19 Q1016
17:30
V
34 °C 10 km+ - 340° 340° 7 kt METAR LDOS 181530Z 34007KT CAVOK 34/20 Q1016
17:00
V
34 °C 10 km+ - 340° 340° 8 kt METAR LDOS 181500Z 34008KT CAVOK 34/20 Q1016
16:30
V
34 °C 10 km+ - 350° 350° 8 kt METAR LDOS 181430Z 35008KT CAVOK 34/20 Q1016
16:00
V
33 °C 10 km+ - 010° 010° 7 kt METAR LDOS 181400Z 01007KT 340V070 CAVOK 33/19 Q1016
15:30
V
33 °C 10 km+ - 360° 360° 7 kt METAR LDOS 181330Z 36007KT 330V040 CAVOK 33/19 Q1017
15:00
V
34 °C 10 km+ - 330° 330° 6 kt METAR LDOS 181300Z 33006KT 280V030 CAVOK 34/20 Q1017
14:30
V
33 °C 10 km+ - 350° 350° 7 kt METAR LDOS 181230Z 35007KT 320V020 CAVOK 33/18 Q1017
14:00
V
32 °C 10 km+ - 340° 340° 5 kt METAR LDOS 181200Z 34005KT 270V040 CAVOK 32/18 Q1018
13:30
V
31 °C 10 km+ - 360° 360° 6 kt METAR LDOS 181130Z 36006KT 300V050 CAVOK 31/18 Q1018
13:00
V
31 °C 10 km+ - Var Var 4 kt METAR LDOS 181100Z VRB04KT CAVOK 31/19 Q1018
12:30
V
31 °C 10 km+ - 030° 030° 4 kt METAR LDOS 181030Z 03004KT 300V090 CAVOK 31/19 Q1018
12:00
V
30 °C 10 km+ - 030° 030° 6 kt METAR LDOS 181000Z 03006KT 350V070 CAVOK 30/20 Q1018
11:30
V
31 °C 10 km+ - 360° 360° 5 kt METAR LDOS 180930Z 36005KT 320V080 CAVOK 31/20 Q1018
11:00
V
29 °C 10 km+ - 310° 310° 8 kt METAR LDOS 180900Z 31008KT 280V340 CAVOK 29/19 Q1018
10:30
V
28 °C 10 km+ - 310° 310° 7 kt METAR LDOS 180830Z 31007KT 280V360 CAVOK 28/19 Q1019
10:00
V
27 °C 10 km+ - 320° 320° 8 kt METAR LDOS 180800Z 32008KT 290V350 CAVOK 27/18 Q1019
09:30
V
27 °C 10 km+ - 310° 310° 7 kt METAR LDOS 180730Z 31007KT 290V350 CAVOK 27/18 Q1018
09:00
V
26 °C 10 km+ - 320° 320° 8 kt METAR LDOS 180700Z 32008KT 290V350 CAVOK 26/18 Q1019
08:30
V
25 °C 10 km+ - 310° 310° 7 kt METAR LDOS 180630Z 31007KT CAVOK 25/18 Q1018
08:00
V
24 °C 10 km+ - 320° 320° 8 kt METAR LDOS 180600Z 32008KT CAVOK 24/17 Q1018
07:30
V
24 °C 10 km+ - 310° 310° 10 kt METAR LDOS 180530Z 31010KT CAVOK 24/17 Q1018
07:00
V
23 °C 10 km+ - 280° 280° 5 kt METAR LDOS 180500Z 28005KT CAVOK 23/18 Q1018
06:30
V
22 °C 10 km+ - 290° 290° 4 kt METAR LDOS 180430Z 29004KT CAVOK 22/18 Q1018
06:02
V
21 °C 10 km+ - 300° 300° 4 kt METAR LDOS 180402Z 30004KT CAVOK 21/18 Q1018
05:30
V
21 °C 10 km+ - 310° 310° 7 kt METAR LDOS 180330Z 31007KT CAVOK 21/18 Q1018
05:00
V
21 °C 10 km+ - 290° 290° 6 kt METAR LDOS 180300Z 29006KT CAVOK 21/18 Q1017
04:30
V
22 °C 10 km+ - 310° 310° 5 kt METAR LDOS 180230Z 31005KT CAVOK 22/18 Q1017
04:00
V
23 °C 10 km+ - 300° 300° 6 kt METAR LDOS 180200Z 30006KT CAVOK 23/17 Q1017
03:30
V
23 °C 10 km+ - 330° 330° 6 kt METAR LDOS 180130Z 33006KT CAVOK 23/17 Q1017
03:00
V
24 °C 10 km+ - 330° 330° 7 kt METAR LDOS 180100Z 33007KT CAVOK 24/18 Q1017
02:30
V
24 °C 10 km+ - 340° 340° 7 kt METAR LDOS 180030Z 34007KT CAVOK 24/18 Q1016
02:00
V
25 °C 10 km+ - 330° 330° 7 kt METAR LDOS 180000Z 33007KT CAVOK 25/18 Q1016
01:30
V
25 °C 10 km+ - 310° 310° 8 kt METAR LDOS 172330Z 31008KT CAVOK 25/18 Q1016
01:00
V
26 °C 10 km+ - 310° 310° 8 kt METAR LDOS 172300Z 31008KT CAVOK 26/18 Q1016
00:30
V
26 °C 10 km+ - 290° 290° 5 kt METAR LDOS 172230Z 29005KT 260V320 CAVOK 26/18 Q1016
00:00
V
27 °C 10 km+ - 330° 330° 7 kt METAR LDOS 172200Z 33007KT CAVOK 27/18 Q1016

17. Juli 2024

Uhrzeit Code Wetter Temp. Sichtweite Wolkendecke Wind METAR/SPECI
23:30
V
28 °C 10 km+ - 330° 330° 7 kt METAR LDOS 172130Z 33007KT CAVOK 28/19 Q1015
23:00
V
29 °C 10 km+ - 340° 340° 8 kt METAR LDOS 172100Z 34008KT CAVOK 29/19 Q1015
22:30
V
29 °C 10 km+ - 340° 340° 7 kt METAR LDOS 172030Z 34007KT CAVOK 29/19 Q1015
22:00
V
28 °C 10 km+ - 350° 350° 5 kt METAR LDOS 172000Z 35005KT CAVOK 28/21 Q1015
21:30
V
27 °C 10 km+ - 290° 290° 5 kt METAR LDOS 171930Z 29005KT CAVOK 27/23 Q1015
21:00
V
23 °C 10 km+ - 110° 110° 6 kt METAR LDOS 171900Z 11006KT CAVOK 23/19 Q1015
20:30
V
30 °C 10 km+ - 280° 280° 6 kt METAR LDOS 171830Z 28006KT CAVOK 30/23 Q1014
20:00
V
31 °C 10 km+ - 280° 280° 6 kt METAR LDOS 171800Z 28006KT CAVOK 31/22 Q1014
19:30
V
33 °C 10 km+ - 300° 300° 5 kt METAR LDOS 171730Z 30005KT CAVOK 33/21 Q1014
19:00
V
33 °C 10 km+ - 290° 290° 8 kt METAR LDOS 171700Z 29008KT CAVOK 33/22 Q1013
18:30
V
34 °C 10 km+ - 290° 290° 7 kt METAR LDOS 171630Z 29007KT CAVOK 34/21 Q1013
18:00
V
34 °C 10 km+ - 300° 300° 4 kt METAR LDOS 171600Z 30004KT 250V340 CAVOK 34/22 Q1013
17:30
V
35 °C 10 km+ - 330° 330° 4 kt METAR LDOS 171530Z 33004KT 280V010 CAVOK 35/21 Q1013
17:00
V
35 °C 10 km+ - 340° 340° 6 kt METAR LDOS 171500Z 34006KT 310V020 CAVOK 35/21 Q1013
16:30
V
35 °C 10 km+ - 020° 020° 7 kt METAR LDOS 171430Z 02007KT CAVOK 35/21 Q1013
16:00
V
35 °C 10 km+ - 030° 030° 7 kt METAR LDOS 171400Z 03007KT CAVOK 35/21 Q1014
15:30
V
35 °C 10 km+ - 010° 010° 9 kt METAR LDOS 171330Z 01009KT 330V050 CAVOK 35/20 Q1014
15:00
V
35 °C 10 km+ - 360° 360° 10 kt METAR LDOS 171300Z 36010KT CAVOK 35/20 Q1013
14:30
V
35 °C 10 km+ - 350° 350° 9 kt METAR LDOS 171230Z 35009KT CAVOK 35/21 Q1014
14:00
V
34 °C 10 km+ - 350° 350° 9 kt METAR LDOS 171200Z 35009KT 340V040 CAVOK 34/21 Q1014
13:30
V
34 °C 10 km+ - 340° 340° 9 kt METAR LDOS 171130Z 34009KT 320V030 CAVOK 34/21 Q1014
13:00
V
33 °C 10 km+ - 350° 350° 9 kt METAR LDOS 171100Z 35009KT 320V030 CAVOK 33/21 Q1014
12:30
V
33 °C 10 km+ - 340° 340° 10 kt METAR LDOS 171030Z 34010KT CAVOK 33/22 Q1014
12:00
V
32 °C 10 km+ - 340° 340° 10 kt METAR LDOS 171000Z 34010KT CAVOK 32/21 Q1014
11:30
V
32 °C 10 km+ - 330° 330° 10 kt METAR LDOS 170930Z 33010KT CAVOK 32/22 Q1014
11:00
V
31 °C 10 km+ - 330° 330° 9 kt METAR LDOS 170900Z 33009KT CAVOK 31/21 Q1014
10:30
V
31 °C 10 km+ - 340° 340° 8 kt METAR LDOS 170830Z 34008KT CAVOK 31/21 Q1014
10:00
V
31 °C 10 km+ - 340° 340° 11 kt METAR LDOS 170800Z 34011KT CAVOK 31/21 Q1014
09:30
V
29 °C 10 km+ - 330° 330° 12 kt METAR LDOS 170730Z 33012KT CAVOK 29/21 Q1014
09:00
V
29 °C 10 km+ - 330° 330° 11 kt METAR LDOS 170700Z 33011KT CAVOK 29/20 Q1014
08:30
V
28 °C 10 km+ - 310° 310° 9 kt METAR LDOS 170630Z 31009KT CAVOK 28/20 Q1014
08:00
V
27 °C 10 km+ - 290° 290° 8 kt METAR LDOS 170600Z 29008KT CAVOK 27/21 Q1014
Eine Änderung melden